Terminal Aerodrome Forecast
Issued by NWS Charleston, WV

Home | Current Version | Previous Version | Text Only | Print | Product List | Glossary On
Versions: 1 2 3 4 5 6 7 8 9 10 11 12 13 14 15 16 17 18 19 20 21 22 23 24 25 26 27 28 29 30 31 32 33 34 35 36 37 38 39 40 41 42
000
FTUS41 KRLX 240540
TAFPKB
TAF
KPKB 240540Z 2406/2506 21004KT 2SM -RA OVC025
     FM240700 26005KT 3SM -RA OVC008
     FM241100 30008KT 2SM -RASN OVC005
     FM241300 31007KT 4SM -SHSN OVC005
     FM241500 30008KT P6SM OVC015
     FM242000 28009G15KT P6SM BKN025=

USA.gov is the U.S. government's official web portal to all federal, state and local government web resources and services.